createdAt,value
2023-02-15T00:05:21.993Z,1032.6836504448272
2023-02-15T00:11:54.291Z,1032.6255839872
2023-02-15T00:18:40.255Z,1032.5979977225484
2023-02-15T00:29:08.578Z,1032.595297681772
2023-02-15T00:35:41.650Z,1032.5709962890849
2023-02-15T00:45:19.971Z,1032.4931332730143
2023-02-15T00:57:20.256Z,1032.2990565920454
2023-02-15T01:03:48.848Z,1032.2895056208722
2023-02-15T01:11:03.954Z,1032.2410889775917
2023-02-15T01:17:36.490Z,1032.2518887896174
2023-02-15T01:30:14.542Z,1032.2038396289136
2023-02-15T01:43:27.766Z,1032.0430489050993
2023-02-15T01:53:12.194Z,1031.9240439248424
2023-02-15T01:59:40.480Z,1031.9387831626125
2023-02-15T02:10:10.778Z,1031.8521138779233
2023-02-15T02:16:39.414Z,1031.8301891033693
2023-02-15T02:23:10.323Z,1031.8196503683394
2023-02-15T02:33:39.106Z,1031.6773347603305
2023-02-15T02:40:12.345Z,1031.6086094578234
2023-02-15T02:46:42.309Z,1031.573711747243
2023-02-15T02:53:12.103Z,1031.5314135203766
2023-02-15T02:59:46.009Z,1031.5180102742481
2023-02-15T03:17:13.427Z,1031.4435459131867
2023-02-15T03:23:47.102Z,1031.359103546703
2023-02-15T03:30:15.790Z,1031.2783728296242
2023-02-15T03:39:39.743Z,1031.237104135563
2023-02-15T03:50:14.680Z,1031.2514827070847
2023-02-15T03:56:55.639Z,1031.3033663803337
2023-02-15T04:03:33.842Z,1031.257012445165
2023-02-15T04:10:09.297Z,1031.2584800128373
2023-02-15T04:22:14.694Z,1031.1057526821326
2023-02-15T04:30:13.163Z,1031.01936575252
2023-02-15T04:36:57.697Z,1030.9777002029673
2023-02-15T04:43:40.622Z,1030.9465269462285
2023-02-15T04:50:26.712Z,1030.900184155379
2023-02-15T04:58:10.520Z,1030.820328421013
2023-02-15T05:05:13.947Z,1030.8082905586534
2023-02-15T05:26:52.694Z,1030.6793039268996
2023-02-15T05:33:56.934Z,1030.6465407462842
2023-02-15T05:55:34.186Z,1030.4653448119288
2023-02-15T06:08:45.016Z,1030.3981335963479
2023-02-15T06:28:30.235Z,1030.3770127272285
2023-02-15T06:35:33.145Z,1030.3066931329179
2023-02-15T06:42:51.008Z,1030.2940788940884
2023-02-15T06:54:03.887Z,1030.3523293976632
2023-02-15T07:02:32.713Z,1030.3740022566135
2023-02-15T07:09:21.182Z,1030.4119618053126
2023-02-15T07:16:21.444Z,1030.2935109585485
2023-02-15T07:23:25.793Z,1030.2432001542295
2023-02-15T07:30:16.104Z,1030.2923562042922
2023-02-15T07:43:33.205Z,1030.0471324331497
2023-02-15T07:50:34.983Z,1030.0339863537745
2023-02-15T08:00:14.299Z,1029.9574770886431
2023-02-15T08:07:14.683Z,1029.9100954856278
2023-02-15T08:14:01.473Z,1029.8655152608874
2023-02-15T08:20:59.926Z,1029.8594999994987
2023-02-15T08:28:57.388Z,1029.8400706427801
2023-02-15T08:39:07.239Z,1029.8453932734292
2023-02-15T08:46:15.999Z,1029.7954709694766
2023-02-15T08:58:01.200Z,1029.74925685368
2023-02-15T09:09:09.669Z,1029.67676187641
2023-02-15T09:16:40.813Z,1029.600380612247
2023-02-15T09:23:27.353Z,1029.4734546838977
2023-02-15T09:31:53.211Z,1029.4115119837904
2023-02-15T09:40:21.881Z,1029.4261986286908
2023-02-15T09:47:11.001Z,1029.4677138003394
2023-02-15T09:53:56.130Z,1029.4541297150756
2023-02-15T10:01:38.214Z,1029.4180259725463
2023-02-15T10:12:14.081Z,1029.4125471975854
2023-02-15T10:19:00.015Z,1029.3922956128183
2023-02-15T10:31:43.360Z,1029.3112464083376
2023-02-15T10:48:24.367Z,1029.2666646997807
2023-02-15T11:00:46.753Z,1029.1211386132672
2023-02-15T11:12:43.688Z,1029.089206827021
2023-02-15T11:23:08.064Z,1028.98158895875
2023-02-15T11:29:51.544Z,1028.9167292177576
2023-02-15T11:48:14.772Z,1028.6982633922312
2023-02-15T11:54:58.091Z,1028.626109460459
2023-02-15T12:01:46.781Z,1028.5212236979435
2023-02-15T12:08:31.081Z,1028.377170065761
2023-02-15T12:15:15.243Z,1028.3073014473873
2023-02-15T12:21:54.230Z,1028.2318586057359
2023-02-15T12:28:30.500Z,1028.1502026429444
2023-02-15T12:35:18.822Z,1028.0497226289096
2023-02-15T12:41:54.965Z,1027.9894240067292
2023-02-15T12:54:51.845Z,1027.773911421145
2023-02-15T13:07:11.709Z,1027.6982872126723
2023-02-15T13:14:12.110Z,1027.6657687437125
2023-02-15T13:21:13.768Z,1027.6003561040316
2023-02-15T13:28:09.334Z,1027.578567866824
2023-02-15T13:35:03.930Z,1027.5340836521925
2023-02-15T13:41:51.477Z,1027.429072579193
2023-02-15T13:55:48.189Z,1027.2342304114275
2023-02-15T14:02:40.107Z,1027.149972953703
2023-02-15T14:09:28.776Z,1027.1494565432283
2023-02-15T14:18:44.256Z,1027.1140905399682
2023-02-15T14:25:26.236Z,1027.03000736938
2023-02-15T14:35:32.407Z,1027.008095999769
2023-02-15T14:42:11.404Z,1027.0112705537936
2023-02-15T14:48:50.433Z,1026.9822959317644
2023-02-15T14:58:06.747Z,1027.0354223558327
2023-02-15T15:04:47.722Z,1027.0349693028777
2023-02-15T15:16:24.856Z,1027.0391871956945
2023-02-15T15:23:01.392Z,1026.9134077053322
2023-02-15T15:29:38.545Z,1026.7896741279476
2023-02-15T15:46:58.630Z,1026.4347491730157
2023-02-15T15:53:30.917Z,1026.4126931049527
2023-02-15T16:00:04.929Z,1026.4037321714566
2023-02-15T16:15:20.433Z,1026.3666298240535
2023-02-15T16:27:15.457Z,1026.3199240916008
2023-02-15T16:36:36.697Z,1026.238474695033
2023-02-15T16:43:03.419Z,1026.2160255697315
2023-02-15T16:57:14.834Z,1026.3956411885092
2023-02-15T17:03:43.481Z,1026.4077265847845
2023-02-15T17:15:02.602Z,1026.4682926529158
2023-02-15T17:26:07.473Z,1026.4202348718081
2023-02-15T17:32:44.421Z,1026.3797153277603
2023-02-15T17:39:20.696Z,1026.2582176342685
2023-02-15T17:48:06.875Z,1026.238469957139
2023-02-15T17:57:07.565Z,1026.174889560222
2023-02-15T18:03:41.756Z,1026.1523776067418
2023-02-15T18:10:18.388Z,1026.2198670477214
2023-02-15T18:19:07.944Z,1026.2065499390958
2023-02-15T18:28:18.371Z,1026.0762237988718
2023-02-15T18:35:03.276Z,1025.9682163782188
2023-02-15T18:41:43.140Z,1025.9645397460129
2023-02-15T18:54:12.269Z,1026.121159226732
2023-02-15T19:04:55.953Z,1026.1744865220892
2023-02-15T19:21:04.836Z,1026.2216595653902
2023-02-15T19:28:38.440Z,1026.220843855545
2023-02-15T19:35:16.862Z,1026.2439633306103
2023-02-15T19:42:04.058Z,1026.213275362999
2023-02-15T19:48:44.369Z,1026.2592021570194
2023-02-15T19:55:15.308Z,1026.2150496992201
2023-02-15T20:01:49.242Z,1026.1850653636664
2023-02-15T20:17:30.237Z,1025.992902306674
2023-02-15T20:24:02.009Z,1025.9569970498621
2023-02-15T20:30:33.139Z,1025.9546635814932
2023-02-15T20:37:07.496Z,1025.9442225176588
2023-02-15T20:55:11.573Z,1026.0132333874776
2023-02-15T21:01:44.447Z,1026.0325807089291
2023-02-15T21:08:25.590Z,1026.0844679574861
2023-02-15T21:20:15.756Z,1026.0940210614715
2023-02-15T21:26:59.070Z,1026.0188021133133
2023-02-15T21:33:25.861Z,1026.000604033105
2023-02-15T21:54:14.418Z,1025.9763473004257
2023-02-15T22:00:45.472Z,1025.9318208184086
2023-02-15T22:07:13.216Z,1025.8540813036686
2023-02-15T22:13:47.095Z,1025.8094918955064
2023-02-15T22:20:21.819Z,1025.7045086295022
2023-02-15T22:26:53.577Z,1025.73719397413
2023-02-15T22:33:28.659Z,1025.7701879971598
2023-02-15T22:39:58.768Z,1025.7379321982164
2023-02-15T22:46:31.055Z,1025.6655059876307
2023-02-15T22:53:04.645Z,1025.6500231753635
2023-02-15T22:59:51.902Z,1025.6773656987718
2023-02-15T23:06:46.569Z,1025.6450932282723
2023-02-15T23:13:28.013Z,1025.631596321755
2023-02-15T23:22:54.273Z,1025.5486785642224
2023-02-15T23:36:51.538Z,1025.6440827542929
2023-02-15T23:43:52.906Z,1025.710311662915
2023-02-15T23:50:49.426Z,1025.755506447365
